Time;durP1;ratioP1;P1;durP2;ratioP2;P2;SDS_P1;SDS_P2;PMS_P1;PMS_P2;Temp;Humidity;BMP_temperature;BMP_pressure;BME280_temperature;BME280_humidity;BME280_pressure;Samples;Min_cycle;Max_cycle;Signal;HPM_P1;HPM_P2
2021/04/01 00:00:49;;;;;;;14.67;10.83;;;;;;;8.71;64.00;96054.63;5012762;28;20206;-62
2021/04/01 00:03:16;;;;;;;18.33;10.80;;;;;;;8.69;62.83;96048.91;5012997;28;20194;-61
2021/04/01 00:05:43;;;;;;;18.60;12.10;;;;;;;8.68;63.55;96038.81;5012897;28;20316;-60
2021/04/01 00:08:10;;;;;;;18.40;12.60;;;;;;;8.73;63.74;96033.59;5012697;28;20233;-62
2021/04/01 00:10:40;;;;;;;20.13;13.43;;;;;;;8.73;64.32;96028.44;5012770;28;20277;-62
2021/04/01 00:13:08;;;;;;;24.87;13.67;;;;;;;8.79;64.44;96025.53;5012418;28;20230;-62
2021/04/01 00:15:38;;;;;;;21.80;14.57;;;;;;;8.76;65.56;96022.72;5012764;28;20225;-62
2021/04/01 00:18:07;;;;;;;24.13;15.50;;;;;;;8.68;66.81;96025.84;5012802;28;20248;-63
2021/04/01 00:20:34;;;;;;;25.97;16.13;;;;;;;8.61;67.14;96018.41;5012511;28;20202;-61
2021/04/01 00:23:01;;;;;;;24.37;15.50;;;;;;;8.67;65.68;96024.34;5012693;28;20708;-63
2021/04/01 00:25:28;;;;;;;22.53;14.30;;;;;;;8.67;65.37;96025.09;5012410;28;20260;-62
2021/04/01 00:27:55;;;;;;;23.50;14.10;;;;;;;8.69;64.75;96009.28;5012194;28;20226;-62
2021/04/01 00:30:24;;;;;;;21.60;13.20;;;;;;;8.63;64.69;96011.13;5012892;28;20199;-60
2021/04/01 00:32:50;;;;;;;18.90;13.13;;;;;;;8.62;64.48;96002.56;5010998;28;20233;-62
2021/04/01 00:35:18;;;;;;;21.03;13.33;;;;;;;8.63;64.55;96006.72;5012401;28;20218;-62
2021/04/01 00:37:44;;;;;;;20.30;13.63;;;;;;;8.47;65.36;96000.06;5012316;28;20201;-63
2021/04/01 00:40:12;;;;;;;19.73;12.53;;;;;;;8.51;65.04;96006.28;5011953;28;20670;-62
2021/04/01 00:42:39;;;;;;;20.10;12.73;;;;;;;8.63;64.87;95993.75;5012346;28;20198;-61
2021/04/01 00:45:09;;;;;;;22.17;13.23;;;;;;;8.50;65.76;95991.78;5012132;28;20236;-63
2021/04/01 00:47:38;;;;;;;19.43;13.87;;;;;;;8.57;65.01;95983.69;5011978;28;20784;-61
2021/04/01 00:50:09;;;;;;;19.13;13.23;;;;;;;8.55;65.39;95985.78;5012035;28;20225;-62
2021/04/01 00:52:36;;;;;;;19.07;12.23;;;;;;;8.60;65.27;95980.59;5011862;28;20320;-62
2021/04/01 00:55:04;;;;;;;19.37;12.70;;;;;;;8.55;65.65;95978.78;5011657;28;20201;-62
2021/04/01 00:57:31;;;;;;;18.60;12.97;;;;;;;8.56;64.95;95966.63;5011764;28;20194;-62
2021/04/01 00:59:58;;;;;;;19.13;13.63;;;;;;;8.71;64.08;95974.31;5011977;28;20667;-63
2021/04/01 01:02:25;;;;;;;20.37;13.87;;;;;;;8.65;64.31;95970.19;5011643;28;20747;-62
2021/04/01 01:04:54;;;;;;;25.77;15.77;;;;;;;8.56;64.55;95967.41;5011750;28;20194;-62
2021/04/01 01:07:21;;;;;;;26.07;15.27;;;;;;;8.56;64.77;95967.41;5011524;28;20198;-61
2021/04/01 01:09:47;;;;;;;20.70;13.40;;;;;;;8.46;65.75;95964.88;5011617;28;20260;-63
2021/04/01 01:12:14;;;;;;;23.50;15.00;;;;;;;8.41;66.18;95962.31;5011742;28;20230;-61
2021/04/01 01:14:41;;;;;;;28.37;16.03;;;;;;;8.49;66.40;95966.91;5011499;28;20191;-62
2021/04/01 01:17:08;;;;;;;20.43;14.33;;;;;;;8.51;66.80;95967.44;5011464;28;20198;-62
2021/04/01 01:19:38;;;;;;;24.43;13.97;;;;;;;8.51;66.57;95956.28;5011432;28;20218;-62
2021/04/01 01:22:07;;;;;;;20.30;13.67;;;;;;;8.47;66.90;95948.25;5011226;28;20693;-62
2021/04/01 01:24:35;;;;;;;20.13;13.77;;;;;;;8.42;67.21;95944.94;5011181;28;20257;-63
2021/04/01 01:27:03;;;;;;;23.07;13.63;;;;;;;8.33;68.33;95942.13;5011139;28;20191;-62
2021/04/01 01:29:30;;;;;;;20.87;13.93;;;;;;;8.28;69.10;95942.13;5011276;28;20221;-63
2021/04/01 01:31:57;;;;;;;24.80;16.80;;;;;;;8.25;69.72;95939.31;5011015;28;20280;-62
2021/04/01 01:34:24;;;;;;;24.10;15.70;;;;;;;8.18;69.77;95932.59;5011169;28;20194;-62
2021/04/01 01:36:51;;;;;;;24.10;15.13;;;;;;;8.16;69.45;95933.91;5011011;28;20699;-62
2021/04/01 01:39:18;;;;;;;24.30;15.10;;;;;;;8.15;68.70;95927.19;5011340;28;20230;-62
2021/04/01 01:41:46;;;;;;;32.23;15.07;;;;;;;8.26;67.90;95920.94;5011219;28;20214;-63
2021/04/01 01:44:12;;;;;;;27.20;16.00;;;;;;;8.20;67.59;95922.00;5010481;28;20238;-62
2021/04/01 01:46:39;;;;;;;23.23;14.40;;;;;;;8.22;68.41;95914.72;5010967;28;20808;-62
2021/04/01 01:49:06;;;;;;;26.73;16.27;;;;;;;8.25;68.13;95909.00;5010892;28;20205;-63
2021/04/01 01:51:33;;;;;;;25.40;15.10;;;;;;;8.27;67.93;95895.81;5010843;28;20227;-61
2021/04/01 01:54:00;;;;;;;26.40;15.93;;;;;;;8.15;68.65;95893.53;5011130;28;20191;-63
2021/04/01 01:56:27;;;;;;;25.03;16.60;;;;;;;8.10;68.70;95888.38;5010773;28;20218;-63
2021/04/01 01:58:57;;;;;;;28.77;17.27;;;;;;;8.08;69.14;95887.88;5011139;28;20195;-62
2021/04/01 02:01:25;;;;;;;23.97;16.63;;;;;;;7.89;70.37;95882.53;5010868;28;20198;-62
2021/04/01 02:03:52;;;;;;;25.60;17.13;;;;;;;7.92;71.57;95887.16;5010465;28;20199;-62
2021/04/01 02:06:20;;;;;;;28.93;16.77;;;;;;;7.72;73.18;95892.47;5010676;28;20198;-62
2021/04/01 02:08:48;;;;;;;30.20;17.47;;;;;;;7.52;74.34;95901.03;5010647;28;20666;-62
2021/04/01 02:11:15;;;;;;;30.53;18.13;;;;;;;7.39;75.08;95896.44;5011019;28;20289;-62
2021/04/01 02:13:42;;;;;;;28.10;18.80;;;;;;;7.39;74.73;95904.19;5010482;28;20194;-63
2021/04/01 02:16:11;;;;;;;27.70;17.83;;;;;;;7.46;74.23;95898.75;5010353;28;20202;-62
2021/04/01 02:18:38;;;;;;;30.17;17.97;;;;;;;7.66;72.48;95906.44;5010797;28;20297;-62
2021/04/01 02:21:08;;;;;;;26.63;18.03;;;;;;;7.69;71.90;95901.50;5010739;28;20206;-62
2021/04/01 02:23:35;;;;;;;26.17;17.53;;;;;;;7.65;71.40;95910.84;5010484;28;20194;-63
2021/04/01 02:26:04;;;;;;;26.80;17.23;;;;;;;7.62;71.18;95916.53;5010427;28;20205;-61
2021/04/01 02:28:32;;;;;;;24.27;16.43;;;;;;;7.50;71.46;95913.47;5010339;28;20218;-62
2021/04/01 02:31:00;;;;;;;23.00;16.23;;;;;;;7.34;71.73;95909.38;5010715;28;20198;-61
2021/04/01 02:33:29;;;;;;;22.20;14.73;;;;;;;7.32;71.52;95912.19;5010376;28;20205;-63
2021/04/01 02:35:57;;;;;;;22.53;14.80;;;;;;;7.19;72.17;95917.16;5010468;28;20657;-63
2021/04/01 02:38:25;;;;;;;23.10;14.83;;;;;;;7.32;71.72;95919.22;5010256;28;20195;-61
2021/04/01 02:40:53;;;;;;;21.87;14.47;;;;;;;7.29;71.50;95923.06;5010039;28;20200;-63
2021/04/01 02:43:23;;;;;;;17.27;12.00;;;;;;;7.33;71.13;95918.16;5010409;28;20194;-61
2021/04/01 02:45:50;;;;;;;17.83;11.97;;;;;;;7.46;70.16;95917.63;5010175;28;20612;-61
2021/04/01 02:48:17;;;;;;;17.30;11.37;;;;;;;7.44;69.43;95911.94;5010011;28;20195;-63
2021/04/01 02:50:44;;;;;;;14.20;10.13;;;;;;;7.58;68.68;95915.50;5010143;28;20290;-62
2021/04/01 02:53:13;;;;;;;14.67;10.63;;;;;;;7.54;69.09;95916.28;5010040;28;20232;-62
2021/04/01 02:55:40;;;;;;;16.07;11.23;;;;;;;7.56;67.95;95917.59;5010526;28;20201;-62
2021/04/01 02:58:07;;;;;;;13.17;8.87;;;;;;;7.63;67.11;95928.41;5014508;28;20205;-63
2021/04/01 03:00:36;;;;;;;12.93;9.80;;;;;;;7.75;65.93;95931.50;5014033;28;20273;-64
2021/04/01 03:03:06;;;;;;;10.00;8.23;;;;;;;7.64;66.10;95924.81;5013852;28;20684;-62
2021/04/01 03:05:33;;;;;;;12.97;8.80;;;;;;;7.71;65.46;95919.34;5013731;28;20195;-63
2021/04/01 03:08:01;;;;;;;12.50;7.60;;;;;;;7.69;65.79;95919.63;5014046;28;20194;-62
2021/04/01 03:10:28;;;;;;;12.00;8.03;;;;;;;7.62;65.22;95913.19;5013683;28;20289;-62
2021/04/01 03:12:54;;;;;;;20.93;9.17;;;;;;;7.70;65.27;95913.41;5013493;28;20226;-62
2021/04/01 03:15:21;;;;;;;15.03;7.90;;;;;;;7.58;65.80;95910.34;5013632;28;20201;-62
2021/04/01 03:17:49;;;;;;;12.73;8.10;;;;;;;7.69;65.69;95914.44;5013634;28;20318;-62
2021/04/01 03:20:16;;;;;;;10.77;7.73;;;;;;;7.75;65.25;95910.81;5013661;28;20207;-61
2021/04/01 03:22:43;;;;;;;11.90;8.13;;;;;;;7.81;65.11;95897.84;5013475;28;20200;-62
2021/04/01 03:25:12;;;;;;;8.77;7.23;;;;;;;7.77;66.10;95905.38;5013228;28;20678;-62
2021/04/01 03:27:40;;;;;;;11.93;8.00;;;;;;;7.72;68.09;95903.56;5013465;28;20201;-62
2021/04/01 03:30:11;;;;;;;11.87;9.30;;;;;;;7.64;70.63;95893.00;5013453;28;20725;-63
2021/04/01 03:32:40;;;;;;;13.73;10.20;;;;;;;7.59;72.09;95898.94;5013287;28;20230;-63
2021/04/01 03:35:09;;;;;;;16.53;11.93;;;;;;;7.54;74.02;95900.78;5013535;28;20226;-63
2021/04/01 03:37:36;;;;;;;17.87;12.60;;;;;;;7.44;74.52;95896.41;5013587;28;20252;-63
2021/04/01 03:40:04;;;;;;;21.57;13.93;;;;;;;7.45;75.13;95904.94;5013666;28;20669;-63
2021/04/01 03:42:31;;;;;;;19.93;13.20;;;;;;;7.38;76.00;95904.44;5013547;28;20657;-62
2021/04/01 03:44:58;;;;;;;22.80;14.70;;;;;;;7.43;74.99;95912.97;5013302;28;20767;-60
2021/04/01 03:47:25;;;;;;;20.43;13.90;;;;;;;7.45;74.67;95910.91;5013389;28;20207;-61
2021/04/01 03:49:52;;;;;;;21.60;14.07;;;;;;;7.42;75.22;95911.44;5012916;28;20205;-61
2021/04/01 03:52:19;;;;;;;22.70;14.57;;;;;;;7.46;74.53;95912.44;5012767;28;20253;-61
2021/04/01 03:54:50;;;;;;;20.70;14.57;;;;;;;7.48;74.51;95907.00;5013424;28;20190;-61
2021/04/01 03:57:16;;;;;;;19.60;14.40;;;;;;;7.38;74.72;95907.78;5012949;28;20202;-64
2021/04/01 03:59:48;;;;;;;24.17;16.47;;;;;;;7.41;73.90;95915.03;5012751;28;20195;-62
2021/04/01 04:02:29;;;;;;;21.00;15.20;;;;;;;7.25;74.85;95910.94;5012721;28;20241;-61
2021/04/01 04:07:58;;;;;;;21.27;14.57;;;;;;;7.27;75.55;95912.22;5012205;28;20202;-63
2021/04/01 04:10:34;;;;;;;21.57;14.67;;;;;;;7.38;74.92;95910.38;5013175;28;20215;-61
2021/04/01 04:13:12;;;;;;;20.77;14.93;;;;;;;7.31;75.56;95902.91;5011322;28;20357;-62
2021/04/01 04:15:40;;;;;;;28.30;18.00;;;;;;;7.30;76.33;95913.50;5012844;28;20199;-62
2021/04/01 04:18:07;;;;;;;26.40;16.97;;;;;;;7.24;76.77;95910.16;5012589;28;20206;-62
2021/04/01 04:20:34;;;;;;;28.60;17.67;;;;;;;7.19;76.97;95907.59;5012452;28;20282;-63
2021/04/01 04:23:01;;;;;;;29.77;16.93;;;;;;;7.17;76.92;95909.63;5012360;28;20285;-61
2021/04/01 04:25:29;;;;;;;28.07;17.17;;;;;;;7.18;77.06;95905.25;5012641;28;20230;-62
2021/04/01 04:28:09;;;;;;;29.23;18.40;;;;;;;7.26;76.46;95912.50;5012216;28;20281;-62
2021/04/01 04:30:35;;;;;;;33.50;18.97;;;;;;;7.37;75.99;95914.03;5012454;28;20225;-62
2021/04/01 04:33:03;;;;;;;39.43;23.03;;;;;;;7.40;75.40;95912.72;5012276;28;20225;-62
2021/04/01 04:35:32;;;;;;;32.00;18.50;;;;;;;7.38;75.23;95919.94;5012084;28;20551;-61
2021/04/01 04:38:00;;;;;;;30.53;18.67;;;;;;;7.30;75.72;95922.03;5011820;28;20203;-62
2021/04/01 04:40:27;;;;;;;32.33;18.93;;;;;;;7.32;75.74;95914.03;5012217;28;20226;-60
2021/04/01 04:42:54;;;;;;;29.00;17.97;;;;;;;7.40;75.45;95926.41;5012198;28;20690;-61
2021/04/01 04:45:21;;;;;;;30.00;18.43;;;;;;;7.45;75.96;95936.75;5011614;28;20227;-62
2021/04/01 04:47:48;;;;;;;31.17;17.10;;;;;;;7.49;75.56;95935.19;5011584;28;20197;-63
2021/04/01 04:50:16;;;;;;;26.67;18.47;;;;;;;7.57;74.70;95944.22;5011753;28;20301;-64
2021/04/01 04:52:43;;;;;;;30.00;18.20;;;;;;;7.67;73.80;95949.38;5011349;28;20222;-62
2021/04/01 04:55:12;;;;;;;28.43;18.60;;;;;;;7.73;73.58;95953.47;5011464;28;20198;-61
2021/04/01 04:57:47;;;;;;;37.93;19.40;;;;;;;7.76;74.45;95952.97;5011783;28;20254;-62
2021/04/01 05:05:44;;;;;;;30.77;15.60;;;;;;;7.78;71.62;95956.81;5011732;28;20241;-62
2021/04/01 05:08:11;;;;;;;22.37;14.70;;;;;;;7.76;71.38;95956.34;5011216;28;20222;-62
2021/04/01 05:10:38;;;;;;;29.23;16.83;;;;;;;7.82;72.33;95951.88;5011354;28;20201;-61
2021/04/01 05:13:09;;;;;;;28.23;17.53;;;;;;;7.83;73.57;95958.63;5011123;28;20312;-63
2021/04/01 05:15:42;;;;;;;27.07;17.77;;;;;;;7.88;73.90;95957.84;5011125;28;20205;-62
2021/04/01 05:18:24;;;;;;;24.90;16.33;;;;;;;7.88;73.47;95953.44;5010770;28;20580;-62
2021/04/01 05:20:54;;;;;;;22.23;14.50;;;;;;;7.90;72.39;95959.13;5010913;28;20199;-61
2021/04/01 05:23:35;;;;;;;24.47;15.40;;;;;;;7.98;71.73;95968.16;5010891;28;20199;-61
2021/04/01 05:28:51;;;;;;;35.53;15.53;;;;;;;8.10;70.37;95968.63;5007116;28;20260;-62
2021/04/01 05:31:21;;;;;;;26.60;16.20;;;;;;;8.17;68.87;95966.50;5011063;28;20229;-62
2021/04/01 05:33:49;;;;;;;37.63;17.53;;;;;;;8.18;69.05;95965.47;5010705;28;20194;-63
2021/04/01 05:36:22;;;;;;;36.63;16.67;;;;;;;8.13;70.89;95966.28;5010633;28;20290;-62
2021/04/01 05:38:51;;;;;;;27.97;16.20;;;;;;;8.09;70.37;95969.66;5010944;28;20709;-62
2021/04/01 05:41:18;;;;;;;30.43;16.30;;;;;;;8.26;69.19;95971.94;5010651;28;20191;-61
2021/04/01 05:43:48;;;;;;;34.20;17.53;;;;;;;8.18;69.48;95968.84;5010747;28;20657;-62
2021/04/01 05:46:19;;;;;;;41.80;19.63;;;;;;;8.21;69.95;95970.13;5010379;28;20359;-63
2021/04/01 05:48:57;;;;;;;36.87;18.50;;;;;;;8.26;70.74;95971.94;5010466;28;20221;-62
2021/04/01 06:03:13;;;;;;;31.23;17.43;;;;;;;8.69;66.41;95984.16;5010729;28;20581;-61
2021/04/01 06:05:44;;;;;;;33.37;19.27;;;;;;;8.77;66.86;95982.78;5010301;28;20702;-62
2021/04/01 06:08:16;;;;;;;49.20;20.63;;;;;;;8.87;67.19;95985.31;5010264;28;20195;-61
2021/04/01 06:10:44;;;;;;;41.83;19.80;;;;;;;9.22;65.08;95974.69;5010221;28;20226;-61
2021/04/01 06:13:12;;;;;;;32.00;17.73;;;;;;;9.48;63.11;95983.78;5010375;28;20237;-61
2021/04/01 06:15:40;;;;;;;32.67;18.60;;;;;;;9.62;62.24;95985.75;5009984;28;20209;-61
2021/04/01 06:18:11;;;;;;;40.23;19.57;;;;;;;9.44;62.69;95982.81;5010236;28;20225;-61
2021/04/01 06:20:41;;;;;;;33.97;19.13;;;;;;;9.72;60.51;95988.22;5010438;28;20568;-62
2021/04/01 06:23:11;;;;;;;31.03;18.97;;;;;;;9.62;61.74;95988.34;5010343;28;20202;-62
2021/04/01 06:25:41;;;;;;;34.57;17.97;;;;;;;9.65;61.89;95987.81;5009899;28;20202;-61
2021/04/01 06:28:13;;;;;;;30.63;18.03;;;;;;;9.89;62.08;95991.19;5009817;28;20215;-62
2021/04/01 06:30:46;;;;;;;52.40;23.77;;;;;;;9.93;61.45;95992.16;5009822;28;20236;-61
2021/04/01 06:33:20;;;;;;;31.20;17.70;;;;;;;10.05;59.16;95995.16;5010097;28;20232;-62
2021/04/01 06:35:50;;;;;;;31.47;17.77;;;;;;;9.89;60.39;95989.38;5010250;28;20287;-62
2021/04/01 06:38:25;;;;;;;37.20;19.30;;;;;;;10.18;61.15;95991.91;5009970;28;20194;-62
2021/04/01 06:40:56;;;;;;;28.03;17.80;;;;;;;10.54;59.94;95992.25;5010130;28;20225;-60
2021/04/01 06:43:39;;;;;;;27.17;16.00;;;;;;;10.90;57.55;95992.53;5009775;28;20674;-61
2021/04/01 06:46:08;;;;;;;29.73;16.67;;;;;;;11.28;55.59;95998.44;5009963;28;20277;-62
2021/04/01 06:48:55;;;;;;;24.13;14.93;;;;;;;11.57;54.05;96000.84;5009675;28;20241;-61
2021/04/01 06:51:27;;;;;;;25.63;14.17;;;;;;;11.68;54.11;95997.00;5010026;28;20281;-62
2021/04/01 06:54:03;;;;;;;26.63;15.53;;;;;;;11.89;53.22;95995.63;5010064;28;20199;-62
2021/04/01 06:56:47;;;;;;;21.43;14.57;;;;;;;12.27;52.69;95995.41;5009763;28;20209;-62
2021/04/01 06:59:26;;;;;;;22.97;14.30;;;;;;;12.68;52.25;95992.75;5010024;28;20201;-61
2021/04/01 07:02:07;;;;;;;24.53;14.77;;;;;;;13.01;49.51;95998.53;5010029;28;20202;-61
2021/04/01 07:04:36;;;;;;;20.10;13.93;;;;;;;12.87;48.52;95994.13;5009788;28;20260;-62
2021/04/01 07:07:05;;;;;;;21.67;13.00;;;;;;;13.17;50.05;95995.31;5009646;28;20202;-61
2021/04/01 07:09:36;;;;;;;21.70;13.60;;;;;;;13.17;47.61;95999.75;5009885;28;20599;-60
2021/04/01 07:12:18;;;;;;;18.23;13.30;;;;;;;13.36;48.68;95992.50;5010017;28;20259;-61
2021/04/01 07:14:48;;;;;;;23.33;13.87;;;;;;;13.22;47.73;96002.25;5008415;28;20651;-61
2021/04/01 07:17:22;;;;;;;22.30;13.17;;;;;;;13.44;47.64;95996.25;5009507;28;20198;-62
2021/04/01 07:47:56;;;;;;;11.50;9.10;;;;;;;13.55;46.24;95990.47;5012965;28;20214;-62
2021/04/01 07:50:27;;;;;;;13.77;9.80;;;;;;;13.90;47.26;95991.41;5012789;28;20200;-62
2021/04/01 07:52:56;;;;;;;14.70;9.80;;;;;;;14.16;47.75;95978.41;5012681;28;20222;-62
2021/04/01 07:55:28;;;;;;;25.43;14.07;;;;;;;14.23;49.51;95978.75;5012801;28;20199;-62
2021/04/01 07:58:11;;;;;;;14.40;10.00;;;;;;;14.61;45.41;95974.53;5012599;28;20658;-62
2021/04/01 08:00:45;;;;;;;13.03;9.73;;;;;;;15.02;45.31;95958.38;5012890;28;20199;-62
2021/04/01 08:06:03;;;;;;;16.13;10.07;;;;;;;14.51;44.26;95980.06;5009650;28;20194;-62
2021/04/01 08:08:38;;;;;;;13.83;10.00;;;;;;;14.32;46.38;95976.94;5012393;28;20219;-62
2021/04/01 08:11:08;;;;;;;13.43;9.07;;;;;;;14.35;45.08;95975.53;5012378;28;20744;-62
2021/04/01 08:13:38;;;;;;;12.90;8.80;;;;;;;14.66;44.85;95973.63;5012456;28;20233;-62
2021/04/01 08:16:08;;;;;;;14.90;8.67;;;;;;;14.75;44.98;95974.38;5012565;28;20285;-62
2021/04/01 08:18:37;;;;;;;12.60;8.30;;;;;;;14.44;45.32;95977.16;5012280;28;20207;-62
2021/04/01 08:21:08;;;;;;;13.67;8.70;;;;;;;14.41;45.19;95982.19;5012508;28;20222;-61
2021/04/01 08:23:37;;;;;;;11.73;8.17;;;;;;;14.48;44.78;95972.84;5012562;28;20206;-64
2021/04/01 08:26:18;;;;;;;14.87;8.43;;;;;;;14.60;44.95;95977.44;5012074;28;20700;-63
2021/04/01 08:29:24;;;;;;;9.87;8.30;;;;;;;14.34;44.97;95969.56;5011859;28;20293;-62
2021/04/01 08:34:41;;;;;;;14.97;8.87;;;;;;;15.15;46.90;95968.97;5011616;28;20202;-63
2021/04/01 08:37:10;;;;;;;16.80;8.90;;;;;;;15.23;46.78;95958.53;5011842;28;20579;-62
2021/04/01 08:39:46;;;;;;;9.00;6.83;;;;;;;15.16;45.77;95963.44;5011748;28;20733;-61
2021/04/01 08:42:38;;;;;;;13.50;7.37;;;;;;;15.15;45.67;95961.91;5011981;28;20199;-62
2021/04/01 08:45:31;;;;;;;8.73;6.90;;;;;;;15.29;44.34;95951.28;5011560;28;20341;-61
2021/04/01 08:48:21;;;;;;;10.67;7.50;;;;;;;15.72;44.54;95954.56;5011854;28;20270;-62
2021/04/01 08:50:59;;;;;;;8.53;6.67;;;;;;;15.50;43.87;95954.75;5011534;28;20688;-61
2021/04/01 08:53:37;;;;;;;8.67;7.00;;;;;;;15.30;45.08;95958.03;5010473;28;20325;-64
2021/04/01 08:56:18;;;;;;;10.67;7.17;;;;;;;15.39;44.66;95951.69;5011386;28;20198;-62
2021/04/01 08:59:00;;;;;;;10.33;7.13;;;;;;;15.46;44.30;95946.75;5011410;28;20257;-62
2021/04/01 09:01:30;;;;;;;8.97;7.23;;;;;;;16.13;46.01;95951.31;5011718;28;20206;-63
2021/04/01 09:04:01;;;;;;;8.37;6.90;;;;;;;16.68;43.92;95939.88;5011242;28;20627;-61
2021/04/01 09:06:32;;;;;;;15.67;9.10;;;;;;;16.88;42.52;95941.72;5011137;28;20206;-62
2021/04/01 09:09:07;;;;;;;16.57;7.80;;;;;;;17.28;40.27;95936.72;5011281;28;20676;-63
2021/04/01 09:11:39;;;;;;;11.77;7.53;;;;;;;17.11;41.51;95935.00;5011336;28;20204;-64
2021/04/01 09:14:19;;;;;;;9.07;5.50;;;;;;;17.06;38.14;95932.59;5011572;28;20305;-62
2021/04/01 09:16:58;;;;;;;9.83;6.40;;;;;;;17.06;41.42;95932.59;5011115;28;20682;-63
2021/04/01 09:19:29;;;;;;;9.33;6.87;;;;;;;17.19;41.26;95926.25;5011017;28;20202;-63
2021/04/01 09:21:58;;;;;;;8.17;5.27;;;;;;;17.01;40.32;95919.66;5010944;28;20592;-62
2021/04/01 09:24:29;;;;;;;10.27;5.97;;;;;;;17.54;41.22;95915.38;5010999;28;20332;-62
2021/04/01 09:26:57;;;;;;;8.33;6.13;;;;;;;17.57;37.86;95914.75;5010963;28;20201;-61
2021/04/01 09:29:23;;;;;;;7.40;5.50;;;;;;;17.00;38.22;95915.47;5010535;28;20222;-62
2021/04/01 09:31:55;;;;;;;7.73;5.10;;;;;;;16.63;38.54;95913.81;5011083;28;20665;-63
2021/04/01 09:34:24;;;;;;;19.40;6.17;;;;;;;16.72;39.47;95910.03;5010735;28;20230;-62
2021/04/01 09:36:53;;;;;;;11.90;5.97;;;;;;;16.91;39.98;95900.91;5010883;28;20195;-63
2021/04/01 09:39:31;;;;;;;8.03;6.53;;;;;;;17.00;41.33;95897.09;5010626;28;20191;-63
2021/04/01 09:42:05;;;;;;;6.37;5.07;;;;;;;17.42;40.25;95889.88;5010612;28;20205;-64
2021/04/01 09:44:33;;;;;;;8.37;5.70;;;;;;;17.61;37.20;95894.63;5010534;28;20234;-62
2021/04/01 09:47:07;;;;;;;7.57;5.43;;;;;;;17.32;37.34;95887.66;5010826;28;20201;-63
2021/04/01 09:49:41;;;;;;;7.53;5.57;;;;;;;17.44;38.88;95884.28;5011027;28;20344;-62
2021/04/01 09:52:13;;;;;;;7.10;5.23;;;;;;;17.32;37.02;95874.53;5010294;28;20287;-62
2021/04/01 09:54:46;;;;;;;9.10;4.17;;;;;;;17.44;36.26;95876.38;5010381;28;20252;-63
2021/04/01 09:57:16;;;;;;;5.90;4.60;;;;;;;17.19;39.04;95878.97;5010350;28;20677;-61
2021/04/01 09:59:49;;;;;;;9.97;5.27;;;;;;;17.27;38.40;95868.72;5010670;28;20197;-63
2021/04/01 10:02:31;;;;;;;7.50;4.30;;;;;;;17.43;38.84;95864.38;5010515;28;20198;-63
2021/04/01 10:05:05;;;;;;;5.53;4.30;;;;;;;17.52;39.36;95865.78;5009924;28;20203;-63
2021/04/01 10:07:34;;;;;;;6.80;4.50;;;;;;;17.44;38.12;95863.25;5010241;28;20238;-63
2021/04/01 10:10:04;;;;;;;9.20;3.80;;;;;;;17.54;33.29;95857.56;5010219;28;20203;-63
2021/04/01 10:12:38;;;;;;;5.67;4.13;;;;;;;17.54;33.24;95855.72;5009981;28;20234;-63
2021/04/01 10:15:10;;;;;;;5.77;3.43;;;;;;;17.57;32.02;95851.66;5010143;28;20233;-62
2021/04/01 10:17:38;;;;;;;6.50;3.30;;;;;;;17.46;32.00;95842.69;5010448;28;20233;-62
2021/04/01 10:20:08;;;;;;;5.70;3.57;;;;;;;17.45;31.55;95841.16;5010431;28;20202;-61
2021/04/01 10:22:38;;;;;;;4.13;3.03;;;;;;;17.64;30.58;95841.38;5010043;28;20202;-62
2021/04/01 10:25:13;;;;;;;3.90;3.00;;;;;;;17.84;31.00;95839.72;5010007;28;20253;-62
2021/04/01 10:27:47;;;;;;;7.17;4.63;;;;;;;18.02;32.06;95833.16;5010073;28;20213;-63
2021/04/01 10:30:18;;;;;;;5.60;4.05;;;;;;;17.96;29.87;95843.13;5010449;28;20210;-62
2021/04/01 10:32:51;;;;;;;4.97;3.90;;;;;;;18.16;32.35;95827.53;5010092;28;20253;-63
2021/04/01 10:35:24;;;;;;;22.77;4.43;;;;;;;18.16;29.17;95824.91;5010106;28;20290;-63
2021/04/01 10:37:56;;;;;;;4.75;3.05;;;;;;;18.34;28.81;95823.50;5009809;28;20280;-63
2021/04/01 10:40:24;;;;;;;5.40;3.03;;;;;;;18.22;29.08;95829.59;5009955;28;20569;-62
2021/04/01 10:43:04;;;;;;;4.85;2.95;;;;;;;18.26;30.24;95824.44;5009967;28;20198;-63
2021/04/01 10:45:35;;;;;;;4.38;2.88;;;;;;;18.22;30.01;95823.56;5010341;28;20341;-62
2021/04/01 10:48:30;;;;;;;6.28;3.80;;;;;;;17.92;29.70;95823.09;5010252;28;20199;-62
2021/04/01 10:51:02;;;;;;;7.60;3.10;;;;;;;18.00;29.36;95817.69;4996921;28;20281;-62
